createdAt,value
2022-11-05T00:00:42.310Z,11.01
2022-11-05T00:03:29.506Z,10.82
2022-11-05T00:06:17.619Z,10.88
2022-11-05T00:09:05.009Z,10.87
2022-11-05T00:11:52.325Z,10.76
2022-11-05T00:14:39.979Z,10.54
2022-11-05T00:17:09.010Z,10.27
2022-11-05T00:19:37.823Z,10.24
2022-11-05T00:22:27.901Z,10.10
2022-11-05T00:25:15.276Z,10.14
2022-11-05T00:27:50.028Z,10.09
2022-11-05T00:30:22.519Z,10.00
2022-11-05T00:32:52.955Z,10.12
2022-11-05T00:35:23.662Z,9.99
2022-11-05T00:37:55.032Z,10.03
2022-11-05T00:40:25.307Z,10.24
2022-11-05T00:43:12.605Z,10.60
2022-11-05T00:45:42.314Z,10.74
2022-11-05T00:48:29.572Z,10.80
2022-11-05T00:50:58.821Z,10.63
2022-11-05T00:53:27.629Z,10.84
2022-11-05T00:55:57.801Z,10.74
2022-11-05T00:58:28.244Z,10.96
2022-11-05T01:01:01.984Z,11.04
2022-11-05T01:03:36.898Z,10.76
2022-11-05T01:06:17.732Z,10.63
2022-11-05T01:08:48.185Z,10.52
2022-11-05T01:11:34.063Z,10.45
2022-11-05T01:14:06.410Z,10.20
2022-11-05T01:16:36.266Z,10.20
2022-11-05T01:19:08.297Z,10.06
2022-11-05T01:21:37.746Z,9.93
2022-11-05T01:24:06.936Z,9.87
2022-11-05T01:26:36.302Z,9.67
2022-11-05T01:29:05.166Z,9.63
2022-11-05T01:31:34.298Z,9.31
2022-11-05T01:34:03.250Z,9.42
2022-11-05T01:36:32.572Z,9.31
2022-11-05T01:39:02.872Z,9.27
2022-11-05T01:41:32.181Z,9.24
2022-11-05T01:44:01.704Z,9.30
2022-11-05T01:46:43.786Z,9.25
2022-11-05T01:49:24.163Z,9.33
2022-11-05T01:51:53.788Z,9.25
2022-11-05T01:54:27.646Z,9.44
2022-11-05T01:57:05.391Z,9.67
2022-11-05T01:59:44.174Z,9.67
2022-11-05T02:02:13.527Z,9.88
2022-11-05T02:04:51.459Z,9.97
2022-11-05T02:07:22.089Z,10.01
2022-11-05T02:09:56.205Z,10.17
2022-11-05T02:12:26.335Z,10.18
2022-11-05T02:14:55.260Z,10.28
2022-11-05T02:17:47.459Z,10.43
2022-11-05T02:20:25.312Z,10.68
2022-11-05T02:23:26.740Z,10.89
2022-11-05T02:26:15.398Z,11.17
2022-11-05T02:28:47.121Z,11.37
2022-11-05T02:31:36.230Z,11.54
2022-11-05T02:34:32.330Z,11.63
2022-11-05T02:37:11.686Z,11.96
2022-11-05T02:40:11.599Z,12.35
2022-11-05T02:42:43.303Z,12.48
2022-11-05T02:45:15.297Z,12.57
2022-11-05T02:47:53.242Z,12.37
2022-11-05T02:50:43.794Z,12.66
2022-11-05T02:53:43.285Z,12.78
2022-11-05T02:56:28.138Z,12.75
2022-11-05T02:58:57.252Z,12.91
2022-11-05T03:01:26.291Z,13.02
2022-11-05T03:04:04.933Z,13.28
2022-11-05T03:06:41.109Z,13.30
2022-11-05T03:09:16.332Z,13.30
2022-11-05T03:12:03.597Z,13.35
2022-11-05T03:14:41.710Z,13.35
2022-11-05T03:17:19.834Z,13.35
2022-11-05T03:20:12.389Z,13.38
2022-11-05T03:22:56.121Z,13.54
2022-11-05T03:25:30.114Z,13.64
2022-11-05T03:28:04.941Z,13.83
2022-11-05T03:30:36.897Z,13.74
2022-11-05T03:33:13.385Z,13.93
2022-11-05T03:35:50.645Z,14.11
2022-11-05T03:38:29.229Z,14.00
2022-11-05T03:41:03.032Z,14.11
2022-11-05T03:43:43.155Z,13.98
2022-11-05T03:46:46.810Z,14.40
2022-11-05T03:49:22.769Z,14.54
2022-11-05T03:52:07.447Z,14.46
2022-11-05T03:54:38.109Z,14.23
2022-11-05T03:57:11.517Z,14.45
2022-11-05T03:59:46.809Z,14.67
2022-11-05T04:02:18.509Z,14.99
2022-11-05T04:04:47.997Z,15.20
2022-11-05T04:07:34.994Z,15.20
2022-11-05T04:10:22.885Z,15.51
2022-11-05T04:13:10.350Z,15.83
2022-11-05T04:15:57.897Z,15.99
2022-11-05T04:18:27.564Z,16.22
2022-11-05T04:21:14.673Z,16.20
2022-11-05T04:24:02.328Z,16.60
2022-11-05T04:26:32.625Z,16.65
2022-11-05T04:29:20.478Z,16.72
2022-11-05T04:31:49.898Z,16.88
2022-11-05T04:34:19.957Z,16.99
2022-11-05T04:36:50.856Z,17.09
2022-11-05T04:39:21.384Z,16.87
2022-11-05T04:41:50.910Z,17.23
2022-11-05T04:44:19.745Z,17.30
2022-11-05T04:46:48.932Z,17.60
2022-11-05T04:49:17.900Z,17.91
2022-11-05T04:51:47.098Z,17.98
2022-11-05T04:54:16.393Z,18.00
2022-11-05T04:56:45.749Z,17.77
2022-11-05T04:59:14.998Z,17.84
2022-11-05T05:01:44.809Z,18.09
2022-11-05T05:04:13.906Z,17.92
2022-11-05T05:06:43.384Z,17.84
2022-11-05T05:09:12.296Z,17.88
2022-11-05T05:11:42.253Z,17.32
2022-11-05T05:14:11.131Z,17.34
2022-11-05T05:16:40.405Z,16.98
2022-11-05T05:19:09.380Z,16.56
2022-11-05T05:21:41.883Z,16.51
2022-11-05T05:24:16.018Z,16.88
2022-11-05T05:26:47.801Z,16.15
2022-11-05T05:29:18.168Z,15.38
2022-11-05T05:31:47.415Z,15.17
2022-11-05T05:34:17.031Z,15.04
2022-11-05T05:36:46.370Z,14.62
2022-11-05T05:39:15.224Z,14.27
2022-11-05T05:41:44.346Z,14.14
2022-11-05T05:44:18.379Z,13.93
2022-11-05T05:46:49.399Z,13.72
2022-11-05T05:49:18.652Z,13.63
2022-11-05T05:51:50.541Z,13.66
2022-11-05T05:54:19.943Z,13.54
2022-11-05T05:56:48.744Z,13.97
2022-11-05T05:59:17.841Z,14.00
2022-11-05T06:01:46.809Z,14.14
2022-11-05T06:04:16.958Z,13.92
2022-11-05T06:06:47.855Z,13.72
2022-11-05T06:09:17.459Z,13.62
2022-11-05T06:11:46.305Z,13.38
2022-11-05T06:14:15.576Z,13.36
2022-11-05T06:16:44.363Z,13.24
2022-11-05T06:19:13.484Z,13.40
2022-11-05T06:21:42.458Z,13.59
2022-11-05T06:24:11.932Z,13.78
2022-11-05T06:26:44.060Z,14.01
2022-11-05T06:29:13.195Z,15.69
2022-11-05T06:31:43.299Z,17.39
2022-11-05T06:34:12.613Z,18.36
2022-11-05T06:36:41.620Z,18.36
2022-11-05T06:39:14.441Z,18.07
2022-11-05T06:42:11.809Z,18.20
2022-11-05T06:44:35.211Z,18.28
2022-11-05T06:47:04.539Z,19.81
2022-11-05T06:49:33.549Z,20.20
2022-11-05T06:52:09.919Z,20.12
2022-11-05T06:54:39.176Z,20.56
2022-11-05T06:57:10.763Z,21.00
2022-11-05T06:59:43.243Z,20.20
2022-11-05T07:02:14.713Z,21.06
2022-11-05T07:04:43.857Z,21.77
2022-11-05T07:07:12.813Z,22.31
2022-11-05T07:09:44.180Z,22.26
2022-11-05T07:12:13.327Z,21.83
2022-11-05T07:14:42.618Z,21.08
2022-11-05T07:17:11.858Z,20.23
2022-11-05T07:19:40.688Z,20.02
2022-11-05T07:22:09.790Z,20.16
2022-11-05T07:24:39.664Z,20.03
2022-11-05T07:27:08.979Z,19.95
2022-11-05T07:29:37.898Z,19.78
2022-11-05T07:32:07.473Z,19.55
2022-11-05T07:34:36.381Z,19.41
2022-11-05T07:37:05.376Z,19.66
2022-11-05T07:39:34.364Z,19.22
2022-11-05T07:42:11.515Z,18.83
2022-11-05T07:44:41.435Z,18.83
2022-11-05T07:47:10.299Z,18.89
2022-11-05T07:49:39.151Z,18.87
2022-11-05T07:52:08.057Z,19.04
2022-11-05T07:54:36.917Z,18.65
2022-11-05T07:57:05.906Z,18.69
2022-11-05T07:59:35.018Z,18.55
2022-11-05T08:02:04.392Z,18.11
2022-11-05T08:04:33.619Z,18.11
2022-11-05T08:07:02.777Z,17.58
2022-11-05T08:09:31.616Z,17.54
2022-11-05T08:12:03.112Z,16.95
2022-11-05T08:14:32.654Z,16.95
2022-11-05T08:17:01.821Z,16.89
2022-11-05T08:19:31.171Z,16.32
2022-11-05T08:22:00.163Z,16.29
2022-11-05T08:24:29.185Z,16.25
2022-11-05T08:26:58.079Z,16.05
2022-11-05T08:29:27.595Z,16.02
2022-11-05T08:31:56.525Z,16.18
2022-11-05T08:34:25.704Z,16.15
2022-11-05T08:36:54.697Z,15.69
2022-11-05T08:39:23.902Z,15.76
2022-11-05T08:41:53.018Z,15.64
2022-11-05T08:44:22.595Z,15.63
2022-11-05T08:46:52.652Z,15.53
2022-11-05T08:49:21.823Z,15.40
2022-11-05T08:51:51.104Z,15.10
2022-11-05T08:54:20.024Z,15.19
2022-11-05T08:56:48.998Z,15.46
2022-11-05T08:59:18.592Z,15.26
2022-11-05T09:01:47.883Z,15.39
2022-11-05T09:04:16.895Z,15.06
2022-11-05T09:06:46.378Z,15.01
2022-11-05T09:09:15.571Z,14.84
2022-11-05T09:12:10.696Z,14.76
2022-11-05T09:14:33.951Z,14.95
2022-11-05T09:17:02.751Z,14.99
2022-11-05T09:19:31.801Z,14.87
2022-11-05T09:22:01.594Z,14.97
2022-11-05T09:24:30.589Z,15.15
2022-11-05T09:26:59.860Z,14.97
2022-11-05T09:29:29.480Z,14.77
2022-11-05T09:31:58.948Z,14.84
2022-11-05T09:34:28.697Z,14.61
2022-11-05T09:36:58.861Z,14.62
2022-11-05T09:39:28.623Z,14.60
2022-11-05T09:42:06.816Z,14.76
2022-11-05T09:44:48.620Z,14.54
2022-11-05T09:47:25.930Z,14.13
2022-11-05T09:49:58.603Z,14.34
2022-11-05T09:52:31.611Z,14.16
2022-11-05T09:55:00.906Z,13.85
2022-11-05T09:57:36.395Z,14.07
2022-11-05T10:00:09.266Z,14.02
2022-11-05T10:02:55.968Z,13.88
2022-11-05T10:05:27.562Z,13.80
2022-11-05T10:08:06.529Z,13.74
2022-11-05T10:11:01.405Z,13.69
2022-11-05T10:13:45.525Z,13.54
2022-11-05T10:16:37.291Z,13.51
2022-11-05T10:19:10.810Z,13.38
2022-11-05T10:24:29.977Z,12.94
2022-11-05T10:27:00.085Z,12.61
2022-11-05T10:29:35.010Z,12.24
2022-11-05T10:32:12.046Z,12.08
2022-11-05T10:34:42.285Z,11.95
2022-11-05T10:37:11.776Z,11.79
2022-11-05T10:39:40.672Z,11.66
2022-11-05T10:42:34.379Z,11.58
2022-11-05T10:45:13.684Z,11.39
2022-11-05T10:48:24.139Z,11.30
2022-11-05T10:50:53.407Z,11.07
2022-11-05T10:53:28.170Z,11.05
2022-11-05T10:55:59.618Z,10.85
2022-11-05T10:58:33.678Z,10.53
2022-11-05T11:01:07.483Z,10.50
2022-11-05T11:03:47.020Z,10.43
2022-11-05T11:06:28.410Z,10.32
2022-11-05T11:08:59.882Z,10.11
2022-11-05T11:11:37.094Z,10.04
2022-11-05T11:14:15.410Z,10.12
2022-11-05T11:16:46.744Z,9.79
2022-11-05T11:19:31.228Z,9.75
2022-11-05T11:22:06.617Z,9.76
2022-11-05T11:24:55.450Z,9.65
2022-11-05T11:27:29.416Z,9.44
2022-11-05T11:30:04.300Z,9.25
2022-11-05T11:32:40.442Z,8.97
2022-11-05T11:35:23.426Z,9.13
2022-11-05T11:37:58.401Z,9.15
2022-11-05T11:40:37.760Z,8.99
2022-11-05T11:43:37.895Z,9.31
2022-11-05T11:46:19.768Z,9.23
2022-11-05T11:48:50.359Z,9.11
2022-11-05T11:51:49.844Z,9.29
2022-11-05T11:54:28.989Z,9.27
2022-11-05T11:56:58.573Z,9.26
2022-11-05T12:00:01.725Z,9.02
2022-11-05T12:02:34.572Z,9.29
2022-11-05T12:05:29.111Z,9.34
2022-11-05T12:08:19.985Z,9.14
2022-11-05T12:11:05.429Z,9.29
2022-11-05T12:14:13.459Z,9.32
2022-11-05T12:16:54.477Z,9.42
2022-11-05T12:19:45.469Z,9.48
2022-11-05T12:22:32.995Z,9.47
2022-11-05T12:25:26.009Z,9.52
2022-11-05T12:27:55.350Z,9.55
2022-11-05T12:30:25.046Z,9.49
2022-11-05T12:33:07.226Z,9.44
2022-11-05T12:35:49.965Z,9.56
2022-11-05T12:38:38.312Z,9.63
2022-11-05T12:41:36.812Z,9.81
2022-11-05T12:44:16.445Z,9.66
2022-11-05T12:46:53.609Z,9.91
2022-11-05T12:49:52.798Z,9.92
2022-11-05T12:52:48.938Z,9.81
2022-11-05T12:55:25.347Z,9.91
2022-11-05T12:58:10.178Z,9.85
2022-11-05T13:00:43.576Z,9.91
2022-11-05T13:03:50.952Z,9.93
2022-11-05T13:06:41.315Z,9.85
2022-11-05T13:09:19.410Z,9.92
2022-11-05T13:12:14.616Z,9.92
2022-11-05T13:15:16.225Z,9.88
2022-11-05T13:17:56.874Z,9.92
2022-11-05T13:20:33.345Z,10.01
2022-11-05T13:23:14.905Z,10.16
2022-11-05T13:25:56.075Z,10.12
2022-11-05T13:28:25.651Z,10.28
2022-11-05T13:30:59.542Z,9.99
2022-11-05T13:33:57.601Z,9.97
2022-11-05T13:36:51.339Z,9.88
2022-11-05T13:39:39.303Z,9.81
2022-11-05T13:42:55.186Z,9.83
2022-11-05T13:46:05.825Z,9.79
2022-11-05T13:49:17.331Z,9.33
2022-11-05T13:52:06.873Z,9.23
2022-11-05T13:55:03.105Z,9.26
2022-11-05T13:57:49.806Z,9.18
2022-11-05T14:00:32.865Z,9.02
2022-11-05T14:03:15.814Z,8.70
2022-11-05T14:05:50.696Z,8.76
2022-11-05T14:08:25.663Z,8.85
2022-11-05T14:11:08.665Z,8.75
2022-11-05T14:13:44.711Z,8.75
2022-11-05T14:16:23.902Z,8.48
2022-11-05T14:19:17.657Z,8.41
2022-11-05T14:21:51.437Z,8.27
2022-11-05T14:24:28.349Z,8.03
2022-11-05T14:27:03.426Z,7.97
2022-11-05T14:29:52.805Z,7.91
2022-11-05T14:32:21.882Z,7.83
2022-11-05T14:35:01.675Z,7.54
2022-11-05T14:37:42.785Z,7.61
2022-11-05T14:40:43.323Z,7.39
2022-11-05T14:43:15.479Z,7.28
2022-11-05T14:45:58.701Z,7.13
2022-11-05T14:48:52.569Z,7.08
2022-11-05T14:51:53.581Z,6.98
2022-11-05T14:54:33.516Z,6.66
2022-11-05T14:57:03.803Z,6.57
2022-11-05T14:59:53.713Z,6.66
2022-11-05T15:02:28.179Z,6.53
2022-11-05T15:05:34.285Z,6.62
2022-11-05T15:08:28.484Z,6.56
2022-11-05T15:11:13.985Z,6.44
2022-11-05T15:14:08.994Z,6.51
2022-11-05T15:16:44.621Z,6.49
2022-11-05T15:19:32.196Z,6.25
2022-11-05T15:22:06.785Z,6.33
2022-11-05T15:24:36.936Z,6.25
2022-11-05T15:27:31.095Z,6.28
2022-11-05T15:30:15.666Z,6.21
2022-11-05T15:32:45.703Z,6.19
2022-11-05T15:35:28.147Z,6.22
2022-11-05T15:38:02.382Z,6.17
2022-11-05T15:40:34.546Z,6.05
2022-11-05T15:43:23.401Z,6.13
2022-11-05T15:46:16.095Z,6.07
2022-11-05T15:48:53.892Z,6.02
2022-11-05T15:51:26.080Z,5.96
2022-11-05T15:56:54.309Z,5.92
2022-11-05T15:59:25.858Z,5.85
2022-11-05T16:02:26.915Z,6.03
2022-11-05T16:04:57.138Z,5.90
2022-11-05T16:07:26.906Z,6.00
2022-11-05T16:10:10.046Z,5.96
2022-11-05T16:12:42.311Z,5.86
2022-11-05T16:15:11.152Z,5.90
2022-11-05T16:17:53.338Z,5.72
2022-11-05T16:20:37.123Z,5.85
2022-11-05T16:23:25.882Z,5.44
2022-11-05T16:25:55.023Z,5.76
2022-11-05T16:28:29.654Z,5.73
2022-11-05T16:31:05.252Z,5.71
2022-11-05T16:33:47.347Z,5.57
2022-11-05T16:36:16.720Z,5.57
2022-11-05T16:38:45.998Z,5.64
2022-11-05T16:41:20.843Z,5.65
2022-11-05T16:44:01.180Z,5.64
2022-11-05T16:46:33.690Z,5.31
2022-11-05T16:49:02.525Z,5.59
2022-11-05T16:51:32.797Z,5.47
2022-11-05T16:54:02.306Z,5.51
2022-11-05T16:56:32.145Z,5.45
2022-11-05T16:59:01.824Z,5.44
2022-11-05T17:01:32.178Z,5.40
2022-11-05T17:04:01.242Z,5.41
2022-11-05T17:06:30.322Z,5.44
2022-11-05T17:08:59.268Z,5.46
2022-11-05T17:11:29.425Z,5.42
2022-11-05T17:13:58.634Z,5.51
2022-11-05T17:16:28.217Z,5.51
2022-11-05T17:18:57.501Z,5.48
2022-11-05T17:21:26.381Z,5.48
2022-11-05T17:23:55.586Z,5.58
2022-11-05T17:26:25.184Z,5.38
2022-11-05T17:28:54.027Z,5.57
2022-11-05T17:31:23.261Z,5.56
2022-11-05T17:33:56.618Z,5.48
2022-11-05T17:36:26.330Z,5.52
2022-11-05T17:38:55.286Z,5.64
2022-11-05T17:41:25.461Z,5.42
2022-11-05T17:43:57.123Z,5.63
2022-11-05T17:46:27.105Z,5.51
2022-11-05T17:48:56.072Z,5.18
2022-11-05T17:51:25.108Z,5.29
2022-11-05T17:53:54.501Z,5.45
2022-11-05T17:56:33.486Z,5.45
2022-11-05T17:59:04.555Z,5.52
2022-11-05T18:01:36.661Z,5.37
2022-11-05T18:04:08.985Z,5.35
2022-11-05T18:06:42.520Z,5.37
2022-11-05T18:09:13.269Z,5.38
2022-11-05T18:11:43.265Z,5.36
2022-11-05T18:14:12.757Z,5.34
2022-11-05T18:16:42.009Z,5.10
2022-11-05T18:19:10.951Z,5.16
2022-11-05T18:21:39.989Z,5.19
2022-11-05T18:24:09.827Z,5.12
2022-11-05T18:26:39.346Z,4.86
2022-11-05T18:29:08.241Z,5.06
2022-11-05T18:31:37.772Z,4.91
2022-11-05T18:34:11.327Z,4.95
2022-11-05T18:36:41.293Z,5.06
2022-11-05T18:39:10.495Z,5.01
2022-11-05T18:41:40.185Z,4.78
2022-11-05T18:44:09.204Z,4.95
2022-11-05T18:46:57.795Z,4.79
2022-11-05T18:49:28.475Z,4.87
2022-11-05T18:51:57.342Z,4.97
2022-11-05T18:54:26.442Z,4.89
2022-11-05T18:56:55.465Z,5.00
2022-11-05T18:59:40.071Z,5.02
2022-11-05T19:02:12.001Z,4.99
2022-11-05T19:04:46.846Z,4.94
2022-11-05T19:07:24.887Z,4.89
2022-11-05T19:09:54.125Z,4.92
2022-11-05T19:12:23.469Z,4.84
2022-11-05T19:14:53.290Z,4.97
2022-11-05T19:17:23.991Z,4.97
2022-11-05T19:19:52.922Z,4.88
2022-11-05T19:22:22.131Z,4.81
2022-11-05T19:24:50.968Z,4.96
2022-11-05T19:27:20.180Z,4.88
2022-11-05T19:29:49.336Z,4.77
2022-11-05T19:32:18.434Z,4.88
2022-11-05T19:34:48.305Z,4.93
2022-11-05T19:37:17.421Z,4.89
2022-11-05T19:39:46.691Z,4.53
2022-11-05T19:42:16.657Z,4.72
2022-11-05T19:44:45.646Z,4.90
2022-11-05T19:47:14.788Z,4.94
2022-11-05T19:49:43.726Z,4.90
2022-11-05T19:52:12.920Z,4.82
2022-11-05T19:54:41.845Z,5.08
2022-11-05T19:57:11.769Z,4.58
2022-11-05T19:59:40.729Z,4.86
2022-11-05T20:02:15.961Z,4.99
2022-11-05T20:04:45.677Z,5.19
2022-11-05T20:07:14.517Z,5.11
2022-11-05T20:09:43.616Z,5.19
2022-11-05T20:12:12.662Z,5.21
2022-11-05T20:14:41.634Z,5.21
2022-11-05T20:17:10.411Z,5.27
2022-11-05T20:19:40.535Z,5.13
2022-11-05T20:22:16.635Z,5.21
2022-11-05T20:24:45.882Z,5.30
2022-11-05T20:27:14.852Z,5.32
2022-11-05T20:29:44.303Z,5.27
2022-11-05T20:32:13.750Z,5.26
2022-11-05T20:34:42.862Z,5.41
2022-11-05T20:37:11.656Z,5.28
2022-11-05T20:39:41.090Z,5.27
2022-11-05T20:42:09.977Z,5.40
2022-11-05T20:44:39.179Z,5.40
2022-11-05T20:47:08.084Z,5.35
2022-11-05T20:49:37.274Z,5.42
2022-11-05T20:52:09.180Z,5.34
2022-11-05T20:54:38.771Z,5.33
2022-11-05T20:57:07.795Z,5.31
2022-11-05T20:59:36.967Z,5.29
2022-11-05T21:02:10.562Z,5.16
2022-11-05T21:04:42.849Z,5.14
2022-11-05T21:07:12.267Z,5.13
2022-11-05T21:09:41.048Z,5.11
2022-11-05T21:12:12.910Z,5.11
2022-11-05T21:14:44.138Z,5.05
2022-11-05T21:17:14.882Z,5.22
2022-11-05T21:19:44.177Z,5.23
2022-11-05T21:22:16.958Z,5.17
2022-11-05T21:24:46.206Z,5.11
2022-11-05T21:27:15.085Z,5.16
2022-11-05T21:29:44.766Z,5.12
2022-11-05T21:32:13.666Z,5.16
2022-11-05T21:34:42.964Z,4.89
2022-11-05T21:37:11.886Z,5.12
2022-11-05T21:39:40.940Z,5.01
2022-11-05T21:42:10.002Z,4.89
2022-11-05T21:44:39.107Z,5.06
2022-11-05T21:47:10.803Z,5.01
2022-11-05T21:49:40.661Z,4.96
2022-11-05T21:52:30.768Z,4.83
2022-11-05T21:55:18.389Z,4.83
2022-11-05T21:58:05.527Z,4.77
2022-11-05T22:00:34.899Z,4.69
2022-11-05T22:03:03.774Z,4.60
2022-11-05T22:05:33.240Z,4.66
2022-11-05T22:08:02.108Z,4.50
2022-11-05T22:10:31.202Z,4.62
2022-11-05T22:13:00.145Z,4.59
2022-11-05T22:15:29.690Z,4.51
2022-11-05T22:17:58.473Z,4.41
2022-11-05T22:20:27.705Z,4.47
2022-11-05T22:22:56.653Z,4.47
2022-11-05T22:25:26.619Z,4.27
2022-11-05T22:27:55.487Z,4.38
2022-11-05T22:30:24.518Z,4.18
2022-11-05T22:32:53.535Z,4.35
2022-11-05T22:35:22.574Z,4.18
2022-11-05T22:37:51.449Z,4.18
2022-11-05T22:40:23.860Z,4.10
2022-11-05T22:42:53.302Z,4.26
2022-11-05T22:45:22.077Z,4.14
2022-11-05T22:47:51.308Z,3.94
2022-11-05T22:50:20.308Z,4.13
2022-11-05T22:52:49.342Z,4.23
2022-11-05T22:55:18.307Z,4.15
2022-11-05T22:57:47.479Z,4.20
2022-11-05T23:00:21.056Z,4.25
2022-11-05T23:02:50.458Z,4.14
2022-11-05T23:05:19.492Z,4.02
2022-11-05T23:08:07.543Z,4.03
2022-11-05T23:10:58.244Z,4.06
2022-11-05T23:13:27.560Z,4.08
2022-11-05T23:16:14.461Z,3.96
2022-11-05T23:19:01.855Z,3.98
2022-11-05T23:21:49.093Z,3.93
2022-11-05T23:24:18.560Z,3.94
2022-11-05T23:26:53.215Z,3.94
2022-11-05T23:29:25.535Z,3.91
2022-11-05T23:32:13.572Z,3.96
2022-11-05T23:34:43.831Z,3.82
2022-11-05T23:37:31.392Z,3.92
2022-11-05T23:40:00.832Z,3.83
2022-11-05T23:42:47.833Z,3.90
2022-11-05T23:45:35.920Z,3.83
2022-11-05T23:48:32.650Z,3.79
2022-11-05T23:51:06.426Z,3.95
2022-11-05T23:53:38.327Z,3.88
2022-11-05T23:56:10.731Z,3.97
2022-11-05T23:58:41.186Z,3.96
